createdAt,value
2018-02-25T00:01:47.791Z,3.47
2018-02-25T00:04:18.070Z,3.47
2018-02-25T00:06:49.539Z,3.57
2018-02-25T00:09:17.907Z,3.53
2018-02-25T00:11:47.144Z,3.63
2018-02-25T00:14:18.820Z,4.00
2018-02-25T00:16:51.374Z,3.40
2018-02-25T00:19:20.697Z,3.73
2018-02-25T00:21:50.823Z,3.20
2018-02-25T00:24:21.728Z,3.30
2018-02-25T00:26:58.376Z,3.60
2018-02-25T00:29:27.620Z,3.80
2018-02-25T00:31:56.877Z,3.50
2018-02-25T00:34:27.103Z,3.80
2018-02-25T00:37:00.082Z,3.53
2018-02-25T00:39:30.480Z,3.57
2018-02-25T00:41:59.535Z,3.67
2018-02-25T00:44:28.489Z,3.63
2018-02-25T00:46:56.885Z,3.67
2018-02-25T00:49:26.739Z,3.37
2018-02-25T00:51:56.494Z,4.00
2018-02-25T00:54:26.558Z,3.30
2018-02-25T00:56:59.860Z,3.80
2018-02-25T00:59:29.606Z,3.30
2018-02-25T01:02:00.141Z,3.77
2018-02-25T01:04:29.305Z,3.20
2018-02-25T01:06:59.413Z,3.10
2018-02-25T01:09:28.384Z,3.17
2018-02-25T01:11:57.962Z,3.13
2018-02-25T01:14:29.611Z,3.40
2018-02-25T01:16:59.913Z,3.37
2018-02-25T01:19:31.628Z,3.63
2018-02-25T01:22:01.688Z,3.40
2018-02-25T01:24:33.655Z,3.57
2018-02-25T01:27:04.618Z,3.60
2018-02-25T01:29:33.721Z,3.33
2018-02-25T01:32:02.823Z,3.40
2018-02-25T01:34:32.119Z,3.33
2018-02-25T01:37:02.043Z,3.17
2018-02-25T01:39:35.364Z,3.50
2018-02-25T01:42:05.631Z,3.47
2018-02-25T01:44:37.011Z,3.63
2018-02-25T01:47:18.116Z,3.40
2018-02-25T01:49:47.372Z,3.30
2018-02-25T01:52:16.205Z,3.47
2018-02-25T01:54:44.776Z,3.17
2018-02-25T01:57:26.201Z,3.70
2018-02-25T01:59:54.643Z,3.50
2018-02-25T02:02:24.428Z,3.00
2018-02-25T02:04:52.828Z,3.40
2018-02-25T02:07:23.095Z,3.40
2018-02-25T02:09:54.891Z,3.30
2018-02-25T02:12:24.000Z,3.20
2018-02-25T02:14:55.057Z,3.40
2018-02-25T02:17:26.707Z,3.47
2018-02-25T02:19:57.009Z,3.13
2018-02-25T02:22:25.728Z,3.23
2018-02-25T02:24:54.914Z,3.33
2018-02-25T02:27:24.189Z,3.80
2018-02-25T02:29:54.523Z,3.47
2018-02-25T02:32:23.773Z,3.03
2018-02-25T02:34:53.451Z,3.53
2018-02-25T02:37:32.798Z,3.40
2018-02-25T02:40:04.998Z,3.10
2018-02-25T02:42:34.301Z,3.37
2018-02-25T02:45:04.240Z,3.53
2018-02-25T02:47:35.721Z,3.10
2018-02-25T02:50:05.098Z,3.00
2018-02-25T02:52:35.235Z,3.20
2018-02-25T02:55:06.474Z,3.13
2018-02-25T02:57:43.289Z,3.57
2018-02-25T03:00:13.339Z,3.47
2018-02-25T03:02:41.666Z,3.67
2018-02-25T03:05:10.323Z,3.17
2018-02-25T03:07:40.084Z,3.07
2018-02-25T03:10:09.302Z,3.30
2018-02-25T03:12:38.574Z,3.50
2018-02-25T03:15:08.576Z,3.47
2018-02-25T03:17:40.005Z,3.07
2018-02-25T03:20:09.282Z,3.20
2018-02-25T03:22:37.691Z,3.53
2018-02-25T03:25:08.068Z,3.40
2018-02-25T03:27:37.236Z,3.07
2018-02-25T03:30:07.184Z,3.10
2018-02-25T03:32:35.765Z,3.10
2018-02-25T03:35:05.067Z,3.20
2018-02-25T03:37:36.359Z,3.23
2018-02-25T03:40:06.882Z,3.60
2018-02-25T03:42:37.120Z,3.20
2018-02-25T03:45:07.322Z,3.20
2018-02-25T03:47:35.659Z,3.40
2018-02-25T03:50:05.232Z,3.17
2018-02-25T03:52:34.618Z,3.33
2018-02-25T03:55:03.802Z,2.97
2018-02-25T03:57:32.172Z,3.10
2018-02-25T04:00:01.901Z,2.87
2018-02-25T04:02:30.759Z,3.03
2018-02-25T04:05:02.482Z,3.20
2018-02-25T04:07:34.984Z,3.50
2018-02-25T04:10:05.151Z,3.43
2018-02-25T04:12:34.464Z,3.47
2018-02-25T04:15:04.781Z,3.30
2018-02-25T04:17:48.609Z,3.53
2018-02-25T04:20:18.604Z,3.17
2018-02-25T04:22:49.071Z,3.23
2018-02-25T04:25:17.463Z,3.10
2018-02-25T04:27:53.173Z,3.10
2018-02-25T04:30:23.433Z,3.47
2018-02-25T04:32:53.507Z,3.17
2018-02-25T04:35:23.175Z,3.60
2018-02-25T04:37:51.770Z,4.37
2018-02-25T04:40:20.886Z,3.33
2018-02-25T04:42:50.772Z,4.37
2018-02-25T04:45:19.438Z,3.47
2018-02-25T04:47:47.810Z,3.10
2018-02-25T04:50:17.375Z,3.10
2018-02-25T04:52:48.214Z,3.20
2018-02-25T04:55:17.631Z,3.43
2018-02-25T04:57:47.150Z,3.57
2018-02-25T05:00:16.363Z,3.33
2018-02-25T05:02:45.973Z,3.07
2018-02-25T05:05:16.076Z,3.57
2018-02-25T05:07:44.394Z,2.93
2018-02-25T05:10:13.693Z,3.33
2018-02-25T05:12:51.959Z,3.27
2018-02-25T05:15:21.160Z,3.47
2018-02-25T05:17:50.612Z,3.33
2018-02-25T05:20:22.634Z,3.10
2018-02-25T05:23:03.955Z,3.97
2018-02-25T05:25:36.078Z,3.20
2018-02-25T05:28:06.404Z,3.30
2018-02-25T05:30:37.514Z,4.00
2018-02-25T05:33:08.598Z,3.80
2018-02-25T05:35:41.667Z,3.73
2018-02-25T05:38:12.382Z,3.33
2018-02-25T05:40:42.783Z,3.60
2018-02-25T05:43:15.269Z,3.43
2018-02-25T05:45:44.411Z,3.73
2018-02-25T05:48:12.875Z,3.67
2018-02-25T05:50:41.443Z,3.60
2018-02-25T05:53:09.751Z,3.03
2018-02-25T05:55:39.975Z,3.53
2018-02-25T05:58:08.900Z,3.83
2018-02-25T06:00:38.203Z,3.60
2018-02-25T06:03:07.238Z,3.93
2018-02-25T06:05:35.653Z,3.63
2018-02-25T06:08:06.670Z,3.10
2018-02-25T06:10:36.942Z,3.37
2018-02-25T06:13:10.149Z,3.53
2018-02-25T06:15:40.474Z,3.60
2018-02-25T06:18:16.438Z,3.47
2018-02-25T06:20:45.727Z,3.67
2018-02-25T06:23:22.605Z,3.57
2018-02-25T06:25:50.991Z,3.53
2018-02-25T06:28:20.222Z,3.73
2018-02-25T06:30:50.130Z,3.83
2018-02-25T06:33:18.536Z,3.73
2018-02-25T06:35:48.475Z,3.60
2018-02-25T06:38:17.700Z,3.80
2018-02-25T06:40:50.539Z,3.87
2018-02-25T06:43:21.581Z,3.60
2018-02-25T06:45:52.352Z,3.83
2018-02-25T06:48:23.008Z,3.50
2018-02-25T06:50:58.806Z,4.00
2018-02-25T06:53:27.924Z,3.87
2018-02-25T06:55:57.948Z,3.60
2018-02-25T06:58:28.175Z,3.77
2018-02-25T07:00:57.682Z,3.93
2018-02-25T07:03:26.971Z,4.10
2018-02-25T07:05:57.252Z,3.63
2018-02-25T07:08:27.018Z,3.80
2018-02-25T07:10:56.859Z,3.53
2018-02-25T07:13:25.784Z,3.60
2018-02-25T07:15:55.644Z,3.90
2018-02-25T07:18:26.705Z,4.27
2018-02-25T07:20:55.955Z,4.10
2018-02-25T07:23:26.356Z,4.23
2018-02-25T07:25:57.728Z,4.63
2018-02-25T07:28:27.552Z,4.40
2018-02-25T07:30:58.755Z,4.27
2018-02-25T07:33:32.785Z,4.47
2018-02-25T07:39:11.262Z,4.20
2018-02-25T07:42:02.986Z,4.57
2018-02-25T07:44:35.446Z,4.30
2018-02-25T07:47:03.807Z,4.10
2018-02-25T07:49:32.315Z,4.67
2018-02-25T07:52:02.498Z,4.20
2018-02-25T08:00:51.123Z,4.80
2018-02-25T08:03:20.388Z,4.70
2018-02-25T08:06:07.552Z,4.93
2018-02-25T08:08:36.759Z,4.77
2018-02-25T08:11:24.279Z,4.50
2018-02-25T08:17:11.309Z,4.37
2018-02-25T08:19:40.444Z,3.90
2018-02-25T08:22:28.499Z,4.27
2018-02-25T08:27:59.103Z,4.67
2018-02-25T08:30:30.060Z,5.17
2018-02-25T08:32:58.478Z,4.37
2018-02-25T08:35:26.899Z,4.63
2018-02-25T08:37:55.246Z,4.80
2018-02-25T08:40:43.071Z,4.20
2018-02-25T08:43:12.344Z,4.50
2018-02-25T08:45:42.383Z,4.60
2018-02-25T08:48:11.046Z,4.13
2018-02-25T09:03:19.042Z,4.00
2018-02-25T09:08:57.372Z,4.20
2018-02-25T09:11:31.734Z,4.97
2018-02-25T09:14:14.813Z,4.60
2018-02-25T09:16:53.334Z,4.43
2018-02-25T09:19:22.638Z,4.93
2018-02-25T09:25:01.787Z,4.50
2018-02-25T09:27:53.581Z,4.80
2018-02-25T09:30:34.794Z,4.60
2018-02-25T09:33:03.179Z,4.70
2018-02-25T09:35:45.239Z,4.70
2018-02-25T09:38:27.671Z,4.70
2018-02-25T09:40:56.940Z,4.63
2018-02-25T09:43:25.605Z,5.03
2018-02-25T09:52:28.901Z,4.83
2018-02-25T10:10:38.299Z,4.30
2018-02-25T10:22:37.554Z,4.33
2018-02-25T10:25:06.828Z,4.03
2018-02-25T10:27:36.416Z,4.50
2018-02-25T10:33:14.685Z,4.27
2018-02-25T10:35:43.219Z,4.50
2018-02-25T10:38:12.124Z,4.67
2018-02-25T10:40:43.714Z,4.70
2018-02-25T10:46:28.846Z,4.30
2018-02-25T10:48:58.161Z,3.87
2018-02-25T11:22:55.925Z,4.23
2018-02-25T12:06:34.799Z,3.83
2018-02-25T13:12:47.809Z,4.20
2018-02-25T13:24:47.614Z,5.27
2018-02-25T13:48:54.358Z,3.47
2018-02-25T13:51:24.939Z,3.60
2018-02-25T13:53:54.151Z,3.50
2018-02-25T13:56:26.695Z,4.13
2018-02-25T13:58:56.528Z,4.10
2018-02-25T14:01:28.324Z,3.43
2018-02-25T14:04:04.006Z,3.40
2018-02-25T14:06:37.747Z,3.90
2018-02-25T14:09:10.740Z,3.53
2018-02-25T14:11:41.756Z,3.90
2018-02-25T14:14:13.337Z,3.47
2018-02-25T14:16:46.683Z,3.60
2018-02-25T14:19:20.937Z,3.53
2018-02-25T14:21:53.886Z,3.63
2018-02-25T14:24:23.907Z,3.80
2018-02-25T14:27:07.946Z,3.50
2018-02-25T14:29:44.020Z,3.27
2018-02-25T14:32:17.294Z,3.90
2018-02-25T14:34:49.017Z,3.30
2018-02-25T14:37:21.593Z,3.70
2018-02-25T14:39:50.649Z,4.20
2018-02-25T14:42:19.098Z,4.00
2018-02-25T14:44:47.726Z,3.70
2018-02-25T14:47:17.772Z,3.73
2018-02-25T14:49:48.104Z,3.43
2018-02-25T14:52:16.644Z,3.67
2018-02-25T14:54:47.156Z,3.50
2018-02-25T14:57:16.524Z,3.47
2018-02-25T14:59:47.828Z,3.70
2018-02-25T15:02:16.235Z,3.60
2018-02-25T15:04:47.681Z,3.00
2018-02-25T15:10:01.330Z,3.57
2018-02-25T15:12:29.987Z,3.57
2018-02-25T15:15:00.548Z,3.33
2018-02-25T15:17:29.870Z,3.50
2018-02-25T15:20:04.995Z,3.40
2018-02-25T15:22:34.202Z,3.43
2018-02-25T15:25:04.283Z,3.60
2018-02-25T15:27:32.711Z,3.40
2018-02-25T15:30:03.951Z,3.03
2018-02-25T15:32:34.743Z,3.50
2018-02-25T15:35:03.154Z,3.20
2018-02-25T15:37:32.416Z,2.83
2018-02-25T15:40:03.405Z,3.07
2018-02-25T15:42:33.253Z,3.13
2018-02-25T15:45:02.422Z,3.63
2018-02-25T15:47:30.867Z,3.40
2018-02-25T15:50:01.365Z,3.43
2018-02-25T15:52:31.632Z,3.03
2018-02-25T15:55:00.924Z,3.03
2018-02-25T15:57:30.583Z,2.90
2018-02-25T15:59:59.173Z,3.47
2018-02-25T16:02:29.802Z,3.33
2018-02-25T16:04:58.155Z,3.33
2018-02-25T16:07:28.659Z,3.10
2018-02-25T16:09:59.218Z,3.00
2018-02-25T16:12:29.365Z,3.43
2018-02-25T16:15:03.572Z,3.40
2018-02-25T16:17:32.787Z,3.40
2018-02-25T16:20:05.229Z,3.00
2018-02-25T16:22:35.790Z,3.37
2018-02-25T16:25:05.067Z,3.90
2018-02-25T16:27:34.377Z,3.07
2018-02-25T16:30:03.645Z,3.10
2018-02-25T16:32:32.088Z,2.80
2018-02-25T16:35:02.066Z,3.10
2018-02-25T16:37:34.203Z,3.00
2018-02-25T16:40:09.279Z,3.00
2018-02-25T16:42:44.935Z,3.43
2018-02-25T16:45:15.292Z,3.57
2018-02-25T16:47:45.584Z,3.77
2018-02-25T16:50:14.067Z,2.83
2018-02-25T16:52:43.374Z,3.00
2018-02-25T16:55:12.783Z,3.10
2018-02-25T16:57:41.271Z,3.00
2018-02-25T17:00:11.409Z,3.37
2018-02-25T17:02:40.043Z,2.80
2018-02-25T17:05:11.749Z,2.70
2018-02-25T17:07:41.054Z,3.10
2018-02-25T17:10:12.559Z,3.17
2018-02-25T17:12:43.800Z,3.40
2018-02-25T17:15:12.694Z,2.63
2018-02-25T17:17:49.051Z,3.23
2018-02-25T17:20:19.983Z,2.87
2018-02-25T17:22:52.759Z,2.90
2018-02-25T17:25:24.733Z,3.13
2018-02-25T17:27:54.095Z,3.37
2018-02-25T17:30:26.096Z,2.90
2018-02-25T17:33:04.154Z,2.63
2018-02-25T17:35:34.101Z,2.93
2018-02-25T17:38:03.327Z,3.27
2018-02-25T17:40:35.890Z,2.70
2018-02-25T17:43:07.106Z,2.90
2018-02-25T17:45:37.950Z,3.07
2018-02-25T17:48:08.296Z,2.80
2018-02-25T17:50:37.447Z,2.87
2018-02-25T17:53:16.152Z,3.13
2018-02-25T17:56:00.389Z,3.20
2018-02-25T17:58:30.310Z,2.80
2018-02-25T18:01:00.585Z,2.80
2018-02-25T18:03:32.344Z,2.90
2018-02-25T18:06:02.842Z,2.97
2018-02-25T18:08:35.020Z,3.00
2018-02-25T18:11:06.388Z,3.00
2018-02-25T18:13:35.222Z,2.70
2018-02-25T18:16:06.112Z,3.07
2018-02-25T18:18:36.059Z,3.50
2018-02-25T18:21:04.811Z,2.60
2018-02-25T18:23:43.124Z,2.73
2018-02-25T18:26:14.167Z,2.40
2018-02-25T18:28:44.931Z,2.67
2018-02-25T18:31:14.162Z,2.60
2018-02-25T18:33:52.403Z,2.93
2018-02-25T18:36:21.217Z,3.70
2018-02-25T18:38:51.298Z,3.63
2018-02-25T18:41:20.332Z,2.77
2018-02-25T18:43:49.445Z,3.83
2018-02-25T18:46:20.374Z,4.33
2018-02-25T18:48:49.796Z,4.27
2018-02-25T18:51:19.954Z,3.67
2018-02-25T18:53:50.850Z,3.70
2018-02-25T18:56:23.645Z,4.07
2018-02-25T18:58:53.289Z,3.17
2018-02-25T19:01:24.122Z,3.27
2018-02-25T19:03:53.811Z,3.30
2018-02-25T19:06:26.157Z,3.13
2018-02-25T19:08:56.477Z,3.03
2018-02-25T19:11:27.766Z,2.80
2018-02-25T19:14:00.098Z,2.97
2018-02-25T19:16:31.332Z,3.30
2018-02-25T19:19:00.560Z,3.13
2018-02-25T19:21:30.669Z,3.50
2018-02-25T19:24:12.235Z,3.30
2018-02-25T19:26:43.175Z,3.77
2018-02-25T19:29:15.018Z,3.10
2018-02-25T19:31:46.985Z,3.50
2018-02-25T19:34:29.283Z,2.93
2018-02-25T19:50:47.440Z,3.37
2018-02-25T19:53:18.721Z,3.13
2018-02-25T19:55:47.672Z,2.90
2018-02-25T19:58:18.108Z,2.50
2018-02-25T20:00:49.079Z,2.90
2018-02-25T20:03:23.184Z,2.90
2018-02-25T20:05:54.805Z,2.47
2018-02-25T20:08:25.292Z,2.53
2018-02-25T20:10:57.708Z,2.67
2018-02-25T20:13:28.627Z,2.73
2018-02-25T20:16:00.296Z,2.50
2018-02-25T20:18:31.431Z,2.47
2018-02-25T20:21:01.382Z,2.40
2018-02-25T20:23:30.222Z,2.73
2018-02-25T20:25:59.446Z,2.67
2018-02-25T20:28:38.525Z,2.60
2018-02-25T20:31:15.761Z,2.97
2018-02-25T20:33:46.372Z,2.73
2018-02-25T20:36:16.356Z,2.83
2018-02-25T20:38:45.664Z,2.40
2018-02-25T20:41:23.762Z,2.90
2018-02-25T20:43:52.870Z,2.57
2018-02-25T20:46:24.198Z,2.90
2018-02-25T20:48:54.089Z,2.73
2018-02-25T20:51:31.294Z,2.80
2018-02-25T20:54:02.027Z,2.63
2018-02-25T20:56:33.255Z,2.80
2018-02-25T20:59:04.246Z,2.73
2018-02-25T21:01:39.329Z,2.97
2018-02-25T21:04:08.899Z,2.60
2018-02-25T21:06:42.668Z,2.50
2018-02-25T21:09:14.256Z,2.47
2018-02-25T21:14:24.734Z,2.97
2018-02-25T21:16:54.147Z,2.70
2018-02-25T21:19:24.027Z,2.90
2018-02-25T21:21:57.469Z,2.90
2018-02-25T21:24:27.276Z,3.00
2018-02-25T21:26:58.321Z,3.13
2018-02-25T21:29:27.741Z,2.60
2018-02-25T21:32:00.482Z,2.63
2018-02-25T21:34:32.144Z,3.10
2018-02-25T21:37:02.316Z,2.80
2018-02-25T21:39:32.283Z,2.93
2018-02-25T21:42:02.942Z,2.87
2018-02-25T21:44:33.979Z,2.63
2018-02-25T21:47:04.177Z,2.90
2018-02-25T21:49:37.224Z,2.60
2018-02-25T21:52:09.441Z,2.70
2018-02-25T21:54:45.884Z,2.70
2018-02-25T21:57:20.059Z,2.90
2018-02-25T21:59:56.186Z,2.43
2018-02-25T22:02:33.416Z,2.67
2018-02-25T22:05:05.872Z,3.00
2018-02-25T22:07:38.236Z,2.50
2018-02-25T22:10:10.657Z,2.67
2018-02-25T22:12:46.323Z,2.60
2018-02-25T22:15:19.238Z,2.53
2018-02-25T22:18:00.251Z,3.10
2018-02-25T22:20:32.241Z,2.50
2018-02-25T22:23:08.443Z,2.50
2018-02-25T22:25:40.265Z,3.07
2018-02-25T22:28:10.426Z,2.80
2018-02-25T22:30:41.601Z,2.80
2018-02-25T22:33:18.345Z,3.00
2018-02-25T22:35:48.170Z,2.80
2018-02-25T22:38:19.849Z,2.60
2018-02-25T22:40:50.090Z,3.07
2018-02-25T22:43:27.747Z,2.60
2018-02-25T22:45:57.851Z,2.70
2018-02-25T22:48:28.905Z,2.60
2018-02-25T22:51:00.224Z,3.17
2018-02-25T22:53:37.341Z,2.70
2018-02-25T22:56:07.725Z,2.40
2018-02-25T22:58:39.079Z,2.73
2018-02-25T23:01:10.851Z,2.63
2018-02-25T23:03:57.638Z,2.40
2018-02-25T23:06:35.895Z,2.63
2018-02-25T23:09:12.856Z,3.27
2018-02-25T23:11:45.436Z,2.63
2018-02-25T23:14:15.317Z,3.10
2018-02-25T23:16:50.841Z,2.57
2018-02-25T23:19:21.604Z,2.60
2018-02-25T23:21:53.001Z,2.50
2018-02-25T23:24:27.516Z,2.73
2018-02-25T23:26:58.145Z,2.53
2018-02-25T23:29:31.686Z,2.53
2018-02-25T23:32:01.190Z,2.47
2018-02-25T23:34:43.450Z,2.40
2018-02-25T23:37:16.307Z,3.10
2018-02-25T23:39:46.795Z,2.40
2018-02-25T23:42:17.703Z,2.50
2018-02-25T23:44:47.969Z,2.70
2018-02-25T23:47:21.124Z,2.70
2018-02-25T23:49:53.162Z,2.37
2018-02-25T23:52:23.852Z,2.63
2018-02-25T23:54:54.631Z,2.50
2018-02-25T23:57:27.527Z,2.63
2018-02-25T23:59:56.816Z,2.73
